sensor_id;sensor_type;location;lat;lon;timestamp;pressure;altitude;pressure_sealevel;temperature;humidity
3544;BME280;1786;52.870;9.578;2024-02-26T00:01:04;99362.31;;;11.56;53.52
3544;BME280;1786;52.870;9.578;2024-02-26T00:03:31;99350.22;;;11.23;54.46
3544;BME280;1786;52.870;9.578;2024-02-26T00:05:59;99347.75;;;10.79;56.26
3544;BME280;1786;52.870;9.578;2024-02-26T00:08:25;99345.88;;;10.91;55.88
3544;BME280;1786;52.870;9.578;2024-02-26T00:10:52;99348.00;;;10.97;56.10
3544;BME280;1786;52.870;9.578;2024-02-26T00:13:19;99359.97;;;11.22;55.33
3544;BME280;1786;52.870;9.578;2024-02-26T00:15:46;99356.69;;;11.40;54.91
3544;BME280;1786;52.870;9.578;2024-02-26T00:18:13;99358.78;;;11.46;54.89
3544;BME280;1786;52.870;9.578;2024-02-26T00:20:40;99366.22;;;11.52;54.49
3544;BME280;1786;52.870;9.578;2024-02-26T00:23:09;99357.31;;;11.53;54.16
3544;BME280;1786;52.870;9.578;2024-02-26T00:25:36;99353.09;;;11.51;54.43
3544;BME280;1786;52.870;9.578;2024-02-26T00:28:04;99347.63;;;11.33;54.35
3544;BME280;1786;52.870;9.578;2024-02-26T00:30:31;99353.63;;;11.35;54.45
3544;BME280;1786;52.870;9.578;2024-02-26T00:32:58;99346.81;;;11.42;53.97
3544;BME280;1786;52.870;9.578;2024-02-26T00:35:25;99348.38;;;11.44;53.96
3544;BME280;1786;52.870;9.578;2024-02-26T00:37:52;99349.19;;;11.45;53.54
3544;BME280;1786;52.870;9.578;2024-02-26T00:40:18;99340.16;;;11.47;53.60
3544;BME280;1786;52.870;9.578;2024-02-26T00:42:45;99338.03;;;11.41;53.66
3544;BME280;1786;52.870;9.578;2024-02-26T00:45:12;99339.69;;;11.33;53.65
3544;BME280;1786;52.870;9.578;2024-02-26T00:47:39;99337.44;;;11.28;53.54
3544;BME280;1786;52.870;9.578;2024-02-26T00:50:08;99332.06;;;10.88;55.00
3544;BME280;1786;52.870;9.578;2024-02-26T00:52:35;99328.47;;;10.68;55.34
3544;BME280;1786;52.870;9.578;2024-02-26T00:55:02;99336.66;;;10.86;55.12
3544;BME280;1786;52.870;9.578;2024-02-26T00:57:29;99328.78;;;10.95;54.91
3544;BME280;1786;52.870;9.578;2024-02-26T00:59:56;99325.31;;;10.95;54.98
3544;BME280;1786;52.870;9.578;2024-02-26T01:02:23;99330.03;;;10.91;55.28
3544;BME280;1786;52.870;9.578;2024-02-26T01:04:50;99342.19;;;10.82;55.52
3544;BME280;1786;52.870;9.578;2024-02-26T01:07:16;99338.34;;;10.87;55.41
3544;BME280;1786;52.870;9.578;2024-02-26T01:09:43;99337.88;;;10.60;56.41
3544;BME280;1786;52.870;9.578;2024-02-26T01:12:10;99333.09;;;10.75;55.92
3544;BME280;1786;52.870;9.578;2024-02-26T01:14:37;99340.13;;;10.65;56.15
3544;BME280;1786;52.870;9.578;2024-02-26T01:17:04;99341.75;;;10.56;56.81
3544;BME280;1786;52.870;9.578;2024-02-26T01:19:31;99344.22;;;10.37;57.59
3544;BME280;1786;52.870;9.578;2024-02-26T01:21:57;99341.59;;;10.37;57.42
3544;BME280;1786;52.870;9.578;2024-02-26T01:24:24;99335.19;;;10.51;57.28
3544;BME280;1786;52.870;9.578;2024-02-26T01:26:51;99333.69;;;10.26;57.53
3544;BME280;1786;52.870;9.578;2024-02-26T01:29:17;99339.84;;;10.15;57.94
3544;BME280;1786;52.870;9.578;2024-02-26T01:31:44;99344.41;;;10.13;58.25
3544;BME280;1786;52.870;9.578;2024-02-26T01:34:11;99347.53;;;10.18;57.96
3544;BME280;1786;52.870;9.578;2024-02-26T01:36:38;99348.31;;;10.41;57.23
3544;BME280;1786;52.870;9.578;2024-02-26T01:39:05;99343.25;;;10.06;58.16
3544;BME280;1786;52.870;9.578;2024-02-26T01:41:31;99347.63;;;10.28;57.74
3544;BME280;1786;52.870;9.578;2024-02-26T01:43:58;99346.53;;;10.30;57.30
3544;BME280;1786;52.870;9.578;2024-02-26T01:46:25;99353.66;;;10.51;56.60
3544;BME280;1786;52.870;9.578;2024-02-26T01:48:51;99350.69;;;10.65;56.13
3544;BME280;1786;52.870;9.578;2024-02-26T01:51:19;99351.59;;;10.75;55.46
3544;BME280;1786;52.870;9.578;2024-02-26T01:53:46;99349.97;;;10.63;56.01
3544;BME280;1786;52.870;9.578;2024-02-26T01:56:14;99342.00;;;10.53;55.76
3544;BME280;1786;52.870;9.578;2024-02-26T01:58:42;99339.16;;;10.45;55.95
3544;BME280;1786;52.870;9.578;2024-02-26T02:01:09;99343.19;;;10.17;57.27
3544;BME280;1786;52.870;9.578;2024-02-26T02:03:36;99337.72;;;9.97;57.43
3544;BME280;1786;52.870;9.578;2024-02-26T02:06:04;99345.63;;;10.09;57.26
3544;BME280;1786;52.870;9.578;2024-02-26T02:08:31;99339.47;;;10.19;57.18
3544;BME280;1786;52.870;9.578;2024-02-26T02:10:58;99349.72;;;10.45;56.72
3544;BME280;1786;52.870;9.578;2024-02-26T02:13:26;99354.81;;;10.58;56.06
3544;BME280;1786;52.870;9.578;2024-02-26T02:15:53;99357.03;;;10.74;55.59
3544;BME280;1786;52.870;9.578;2024-02-26T02:18:20;99360.97;;;10.79;55.19
3544;BME280;1786;52.870;9.578;2024-02-26T02:20:46;99350.44;;;10.68;54.99
3544;BME280;1786;52.870;9.578;2024-02-26T02:23:13;99354.25;;;10.54;55.02
3544;BME280;1786;52.870;9.578;2024-02-26T02:25:40;99362.59;;;10.27;56.10
3544;BME280;1786;52.870;9.578;2024-02-26T02:28:07;99361.31;;;10.10;56.26
3544;BME280;1786;52.870;9.578;2024-02-26T02:30:34;99358.38;;;9.92;57.03
3544;BME280;1786;52.870;9.578;2024-02-26T02:33:02;99363.22;;;10.31;56.19
3544;BME280;1786;52.870;9.578;2024-02-26T02:35:29;99362.00;;;9.80;57.51
3544;BME280;1786;52.870;9.578;2024-02-26T02:37:57;99364.75;;;9.79;57.70
3544;BME280;1786;52.870;9.578;2024-02-26T02:40:24;99363.16;;;9.99;57.26
3544;BME280;1786;52.870;9.578;2024-02-26T02:42:51;99364.41;;;9.83;57.77
3544;BME280;1786;52.870;9.578;2024-02-26T02:45:17;99362.97;;;9.79;57.46
3544;BME280;1786;52.870;9.578;2024-02-26T02:47:44;99355.31;;;8.97;59.98
3544;BME280;1786;52.870;9.578;2024-02-26T02:50:11;99356.09;;;8.40;61.79
3544;BME280;1786;52.870;9.578;2024-02-26T02:52:37;99359.91;;;8.71;61.43
3544;BME280;1786;52.870;9.578;2024-02-26T02:55:04;99357.25;;;8.71;61.31
3544;BME280;1786;52.870;9.578;2024-02-26T02:57:31;99355.84;;;8.78;60.77
3544;BME280;1786;52.870;9.578;2024-02-26T02:59:59;99361.66;;;9.40;59.62
3544;BME280;1786;52.870;9.578;2024-02-26T03:02:26;99363.69;;;9.70;58.74
3544;BME280;1786;52.870;9.578;2024-02-26T03:04:52;99372.31;;;9.83;58.18
3544;BME280;1786;52.870;9.578;2024-02-26T03:07:19;99370.00;;;9.90;58.02
3544;BME280;1786;52.870;9.578;2024-02-26T03:09:46;99361.75;;;9.83;58.09
3544;BME280;1786;52.870;9.578;2024-02-26T03:12:13;99379.28;;;9.73;58.53
3544;BME280;1786;52.870;9.578;2024-02-26T03:14:40;99377.81;;;9.91;57.97
3544;BME280;1786;52.870;9.578;2024-02-26T03:17:06;99378.91;;;9.78;58.29
3544;BME280;1786;52.870;9.578;2024-02-26T03:19:33;99381.56;;;9.66;58.33
3544;BME280;1786;52.870;9.578;2024-02-26T03:22:00;99383.22;;;9.45;58.83
3544;BME280;1786;52.870;9.578;2024-02-26T03:24:26;99382.63;;;9.19;59.95
3544;BME280;1786;52.870;9.578;2024-02-26T03:26:53;99393.38;;;8.93;60.52
3544;BME280;1786;52.870;9.578;2024-02-26T03:29:20;99390.84;;;8.32;62.20
3544;BME280;1786;52.870;9.578;2024-02-26T03:31:46;99394.78;;;8.27;62.71
3544;BME280;1786;52.870;9.578;2024-02-26T03:34:13;99403.31;;;8.54;62.13
3544;BME280;1786;52.870;9.578;2024-02-26T03:36:41;99403.00;;;8.46;62.15
3544;BME280;1786;52.870;9.578;2024-02-26T03:39:08;99402.94;;;8.59;62.16
3544;BME280;1786;52.870;9.578;2024-02-26T03:41:36;99407.84;;;8.87;61.04
3544;BME280;1786;52.870;9.578;2024-02-26T03:44:02;99409.50;;;8.53;61.98
3544;BME280;1786;52.870;9.578;2024-02-26T03:46:29;99409.00;;;8.24;63.26
3544;BME280;1786;52.870;9.578;2024-02-26T03:48:56;99402.88;;;8.23;62.95
3544;BME280;1786;52.870;9.578;2024-02-26T03:51:22;99408.28;;;8.46;62.45
3544;BME280;1786;52.870;9.578;2024-02-26T03:53:50;99405.13;;;8.41;62.80
3544;BME280;1786;52.870;9.578;2024-02-26T03:56:16;99403.31;;;8.17;63.00
3544;BME280;1786;52.870;9.578;2024-02-26T03:58:43;99407.13;;;8.37;62.63
3544;BME280;1786;52.870;9.578;2024-02-26T04:01:10;99403.94;;;7.97;63.85
3544;BME280;1786;52.870;9.578;2024-02-26T04:03:36;99414.41;;;8.10;63.15
3544;BME280;1786;52.870;9.578;2024-02-26T04:06:04;99417.06;;;7.97;63.68
3544;BME280;1786;52.870;9.578;2024-02-26T04:08:30;99423.25;;;8.33;63.14
3544;BME280;1786;52.870;9.578;2024-02-26T04:10:57;99417.22;;;7.83;64.06
3544;BME280;1786;52.870;9.578;2024-02-26T04:13:25;99410.84;;;7.48;65.23
3544;BME280;1786;52.870;9.578;2024-02-26T04:15:52;99414.91;;;7.65;64.70
3544;BME280;1786;52.870;9.578;2024-02-26T04:18:18;99412.06;;;7.68;64.88
3544;BME280;1786;52.870;9.578;2024-02-26T04:20:45;99413.25;;;8.01;63.82
3544;BME280;1786;52.870;9.578;2024-02-26T04:23:12;99415.34;;;7.72;64.91
3544;BME280;1786;52.870;9.578;2024-02-26T04:25:38;99422.06;;;7.89;64.54
3544;BME280;1786;52.870;9.578;2024-02-26T04:28:05;99435.78;;;8.05;63.92
3544;BME280;1786;52.870;9.578;2024-02-26T04:30:32;99442.19;;;8.38;63.23
3544;BME280;1786;52.870;9.578;2024-02-26T04:32:58;99438.06;;;8.71;62.21
3544;BME280;1786;52.870;9.578;2024-02-26T04:35:25;99442.25;;;9.08;61.23
3544;BME280;1786;52.870;9.578;2024-02-26T04:37:52;99442.78;;;9.25;60.78
3544;BME280;1786;52.870;9.578;2024-02-26T04:40:18;99444.63;;;9.58;59.92
3544;BME280;1786;52.870;9.578;2024-02-26T04:42:45;99442.56;;;9.62;59.55
3544;BME280;1786;52.870;9.578;2024-02-26T04:45:12;99449.34;;;9.19;60.32
3544;BME280;1786;52.870;9.578;2024-02-26T04:47:39;99457.09;;;8.98;61.15
3544;BME280;1786;52.870;9.578;2024-02-26T04:50:06;99448.75;;;9.16;60.26
3544;BME280;1786;52.870;9.578;2024-02-26T04:52:33;99458.63;;;8.90;60.98
3544;BME280;1786;52.870;9.578;2024-02-26T04:54:59;99450.91;;;9.10;60.94
3544;BME280;1786;52.870;9.578;2024-02-26T04:57:26;99453.53;;;9.22;60.27
3544;BME280;1786;52.870;9.578;2024-02-26T04:59:53;99459.78;;;9.32;60.04
3544;BME280;1786;52.870;9.578;2024-02-26T05:02:20;99461.94;;;9.27;60.28
3544;BME280;1786;52.870;9.578;2024-02-26T05:04:46;99465.88;;;9.10;60.60
3544;BME280;1786;52.870;9.578;2024-02-26T05:07:13;99474.06;;;8.94;60.91
3544;BME280;1786;52.870;9.578;2024-02-26T05:09:40;99479.13;;;8.97;61.31
3544;BME280;1786;52.870;9.578;2024-02-26T05:12:09;99474.69;;;8.74;61.49
3544;BME280;1786;52.870;9.578;2024-02-26T05:14:36;99478.75;;;9.02;61.04
3544;BME280;1786;52.870;9.578;2024-02-26T05:17:02;99479.19;;;8.60;62.03
3544;BME280;1786;52.870;9.578;2024-02-26T05:19:29;99486.78;;;9.00;61.22
3544;BME280;1786;52.870;9.578;2024-02-26T05:21:56;99476.91;;;9.26;60.34
3544;BME280;1786;52.870;9.578;2024-02-26T05:24:23;99484.50;;;8.96;61.66
3544;BME280;1786;52.870;9.578;2024-02-26T05:26:50;99472.97;;;8.24;63.35
3544;BME280;1786;52.870;9.578;2024-02-26T05:29:16;99477.06;;;7.92;64.34
3544;BME280;1786;52.870;9.578;2024-02-26T05:31:43;99476.38;;;8.01;64.48
3544;BME280;1786;52.870;9.578;2024-02-26T05:34:10;99474.28;;;7.93;64.70
3544;BME280;1786;52.870;9.578;2024-02-26T05:36:37;99482.00;;;7.71;65.39
3544;BME280;1786;52.870;9.578;2024-02-26T05:39:04;99475.59;;;7.62;66.01
3544;BME280;1786;52.870;9.578;2024-02-26T05:41:30;99477.06;;;7.92;65.31
3544;BME280;1786;52.870;9.578;2024-02-26T05:43:58;99479.78;;;7.77;66.05
3544;BME280;1786;52.870;9.578;2024-02-26T05:46:25;99478.75;;;7.67;65.75
3544;BME280;1786;52.870;9.578;2024-02-26T05:48:53;99481.75;;;8.12;64.91
3544;BME280;1786;52.870;9.578;2024-02-26T05:51:20;99475.53;;;8.13;64.60
3544;BME280;1786;52.870;9.578;2024-02-26T05:53:47;99478.31;;;7.99;65.24
3544;BME280;1786;52.870;9.578;2024-02-26T05:56:22;99481.63;;;8.27;64.53
3544;BME280;1786;52.870;9.578;2024-02-26T05:58:50;99488.31;;;8.31;64.48
3544;BME280;1786;52.870;9.578;2024-02-26T06:01:17;99485.97;;;8.39;64.54
3544;BME280;1786;52.870;9.578;2024-02-26T06:03:44;99490.56;;;8.24;64.85
3544;BME280;1786;52.870;9.578;2024-02-26T06:06:11;99498.34;;;8.62;63.85
3544;BME280;1786;52.870;9.578;2024-02-26T06:08:38;99499.19;;;8.63;63.91
3544;BME280;1786;52.870;9.578;2024-02-26T06:11:08;99503.41;;;9.25;62.11
3544;BME280;1786;52.870;9.578;2024-02-26T06:13:35;99504.97;;;8.92;62.88
3544;BME280;1786;52.870;9.578;2024-02-26T06:16:02;99510.50;;;9.47;61.67
3544;BME280;1786;52.870;9.578;2024-02-26T06:18:29;99512.84;;;9.63;61.17
3544;BME280;1786;52.870;9.578;2024-02-26T06:20:56;99506.25;;;9.80;60.54
3544;BME280;1786;52.870;9.578;2024-02-26T06:23:22;99518.66;;;8.97;62.38
3544;BME280;1786;52.870;9.578;2024-02-26T06:25:49;99520.56;;;9.06;62.57
3544;BME280;1786;52.870;9.578;2024-02-26T06:28:16;99528.19;;;8.87;62.89
3544;BME280;1786;52.870;9.578;2024-02-26T06:30:43;99517.28;;;8.68;63.33
3544;BME280;1786;52.870;9.578;2024-02-26T06:33:09;99511.25;;;8.54;63.87
3544;BME280;1786;52.870;9.578;2024-02-26T06:35:37;99517.06;;;8.71;63.41
3544;BME280;1786;52.870;9.578;2024-02-26T06:38:04;99517.53;;;8.64;63.66
3544;BME280;1786;52.870;9.578;2024-02-26T06:40:30;99521.09;;;8.39;64.41
3544;BME280;1786;52.870;9.578;2024-02-26T06:42:57;99516.06;;;8.60;63.98
3544;BME280;1786;52.870;9.578;2024-02-26T06:45:24;99522.06;;;7.87;66.21
3544;BME280;1786;52.870;9.578;2024-02-26T06:47:50;99533.88;;;8.44;64.79
3544;BME280;1786;52.870;9.578;2024-02-26T06:50:17;99534.03;;;8.30;65.27
3544;BME280;1786;52.870;9.578;2024-02-26T06:52:44;99530.47;;;8.05;65.83
3544;BME280;1786;52.870;9.578;2024-02-26T06:55:12;99548.78;;;8.93;63.66
3544;BME280;1786;52.870;9.578;2024-02-26T06:57:39;99555.06;;;9.27;62.63
3544;BME280;1786;52.870;9.578;2024-02-26T07:00:06;99562.06;;;9.51;61.90
3544;BME280;1786;52.870;9.578;2024-02-26T07:02:33;99566.94;;;9.91;61.04
3544;BME280;1786;52.870;9.578;2024-02-26T07:05:02;99563.03;;;10.30;59.99
3544;BME280;1786;52.870;9.578;2024-02-26T07:07:29;99577.16;;;10.74;58.89
3544;BME280;1786;52.870;9.578;2024-02-26T07:09:56;99568.06;;;10.45;59.18
3544;BME280;1786;52.870;9.578;2024-02-26T07:12:23;99573.38;;;10.88;58.42
3544;BME280;1786;52.870;9.578;2024-02-26T07:14:50;99580.38;;;10.89;58.54
3544;BME280;1786;52.870;9.578;2024-02-26T07:17:18;99588.66;;;10.85;57.63
3544;BME280;1786;52.870;9.578;2024-02-26T07:19:46;99589.00;;;11.23;57.72
3544;BME280;1786;52.870;9.578;2024-02-26T07:22:13;99594.28;;;11.35;57.38
3544;BME280;1786;52.870;9.578;2024-02-26T07:24:40;99590.69;;;10.92;57.88
3544;BME280;1786;52.870;9.578;2024-02-26T07:27:07;99585.19;;;10.84;58.14
3544;BME280;1786;52.870;9.578;2024-02-26T07:29:34;99592.28;;;10.72;58.47
3544;BME280;1786;52.870;9.578;2024-02-26T07:32:00;99590.84;;;10.46;59.03
3544;BME280;1786;52.870;9.578;2024-02-26T07:34:27;99594.00;;;10.39;59.52
3544;BME280;1786;52.870;9.578;2024-02-26T07:36:56;99594.25;;;10.36;59.74
3544;BME280;1786;52.870;9.578;2024-02-26T07:39:23;99595.56;;;10.42;59.72
3544;BME280;1786;52.870;9.578;2024-02-26T07:41:49;99591.31;;;10.17;60.03
3544;BME280;1786;52.870;9.578;2024-02-26T07:44:19;99600.13;;;10.51;59.84
3544;BME280;1786;52.870;9.578;2024-02-26T07:46:46;99596.38;;;10.43;59.90
3544;BME280;1786;52.870;9.578;2024-02-26T07:49:13;99593.47;;;10.01;60.50
3544;BME280;1786;52.870;9.578;2024-02-26T07:51:41;99588.66;;;9.94;60.91
3544;BME280;1786;52.870;9.578;2024-02-26T07:54:08;99596.78;;;9.45;62.28
3544;BME280;1786;52.870;9.578;2024-02-26T07:56:34;99596.03;;;9.67;62.23
3544;BME280;1786;52.870;9.578;2024-02-26T07:59:01;99594.63;;;9.39;62.55
3544;BME280;1786;52.870;9.578;2024-02-26T08:01:28;99603.94;;;9.31;63.03
3544;BME280;1786;52.870;9.578;2024-02-26T08:03:54;99614.72;;;9.64;62.73
3544;BME280;1786;52.870;9.578;2024-02-26T08:06:23;99606.31;;;9.59;62.86
3544;BME280;1786;52.870;9.578;2024-02-26T08:08:52;99605.97;;;9.28;63.54
3544;BME280;1786;52.870;9.578;2024-02-26T08:11:20;99606.63;;;9.89;62.11
3544;BME280;1786;52.870;9.578;2024-02-26T08:13:46;99611.00;;;9.31;63.55
3544;BME280;1786;52.870;9.578;2024-02-26T08:16:13;99611.06;;;9.89;62.72
3544;BME280;1786;52.870;9.578;2024-02-26T08:18:39;99613.19;;;10.42;61.54
3544;BME280;1786;52.870;9.578;2024-02-26T08:21:06;99610.09;;;9.90;62.54
3544;BME280;1786;52.870;9.578;2024-02-26T08:23:35;99622.00;;;10.07;62.42
3544;BME280;1786;52.870;9.578;2024-02-26T08:26:01;99619.38;;;10.07;62.32
3544;BME280;1786;52.870;9.578;2024-02-26T08:28:30;99613.72;;;10.00;62.39
3544;BME280;1786;52.870;9.578;2024-02-26T08:30:56;99613.66;;;10.35;61.08
3544;BME280;1786;52.870;9.578;2024-02-26T08:33:23;99606.97;;;10.54;62.17
3544;BME280;1786;52.870;9.578;2024-02-26T08:35:50;99619.91;;;10.46;61.97
3544;BME280;1786;52.870;9.578;2024-02-26T08:38:16;99622.50;;;11.02;60.38
3544;BME280;1786;52.870;9.578;2024-02-26T08:40:43;99616.84;;;11.39;59.55
3544;BME280;1786;52.870;9.578;2024-02-26T08:43:09;99632.56;;;11.52;59.40
3544;BME280;1786;52.870;9.578;2024-02-26T08:45:36;99628.88;;;11.64;58.88
3544;BME280;1786;52.870;9.578;2024-02-26T08:48:04;99633.59;;;11.81;58.89
3544;BME280;1786;52.870;9.578;2024-02-26T08:50:30;99631.28;;;11.67;59.18
3544;BME280;1786;52.870;9.578;2024-02-26T08:52:57;99630.84;;;11.83;59.17
3544;BME280;1786;52.870;9.578;2024-02-26T08:55:24;99633.47;;;11.62;59.23
3544;BME280;1786;52.870;9.578;2024-02-26T08:57:51;99632.78;;;11.48;60.24
3544;BME280;1786;52.870;9.578;2024-02-26T09:00:18;99629.53;;;12.19;58.81
3544;BME280;1786;52.870;9.578;2024-02-26T09:02:47;99630.72;;;11.84;58.89
3544;BME280;1786;52.870;9.578;2024-02-26T09:05:14;99638.13;;;12.63;58.27
3544;BME280;1786;52.870;9.578;2024-02-26T09:07:41;99640.75;;;13.04;55.80
3544;BME280;1786;52.870;9.578;2024-02-26T09:10:08;99642.91;;;12.39;57.01
3544;BME280;1786;52.870;9.578;2024-02-26T09:12:38;99642.13;;;12.48;57.01
3544;BME280;1786;52.870;9.578;2024-02-26T09:15:07;99641.09;;;12.39;57.26
3544;BME280;1786;52.870;9.578;2024-02-26T09:17:34;99647.03;;;12.52;57.56
3544;BME280;1786;52.870;9.578;2024-02-26T09:20:02;99655.31;;;12.38;57.45
3544;BME280;1786;52.870;9.578;2024-02-26T09:22:29;99655.13;;;12.30;57.01
3544;BME280;1786;52.870;9.578;2024-02-26T09:24:55;99666.13;;;12.25;57.70
3544;BME280;1786;52.870;9.578;2024-02-26T09:27:22;99670.47;;;12.97;57.07
3544;BME280;1786;52.870;9.578;2024-02-26T09:29:50;99666.47;;;13.13;56.41
3544;BME280;1786;52.870;9.578;2024-02-26T09:32:16;99668.41;;;13.11;55.85
3544;BME280;1786;52.870;9.578;2024-02-26T09:34:44;99674.59;;;13.21;55.30
3544;BME280;1786;52.870;9.578;2024-02-26T09:37:11;99676.31;;;13.32;55.26
3544;BME280;1786;52.870;9.578;2024-02-26T09:39:47;99687.81;;;13.71;54.59
3544;BME280;1786;52.870;9.578;2024-02-26T09:42:18;99688.44;;;13.34;54.58
3544;BME280;1786;52.870;9.578;2024-02-26T09:44:45;99704.69;;;13.70;54.00
3544;BME280;1786;52.870;9.578;2024-02-26T09:47:14;99696.44;;;13.93;53.56
3544;BME280;1786;52.870;9.578;2024-02-26T09:49:43;99701.75;;;14.12;53.20
3544;BME280;1786;52.870;9.578;2024-02-26T09:52:10;99701.06;;;13.52;53.73
3544;BME280;1786;52.870;9.578;2024-02-26T09:54:37;99704.00;;;13.58;53.29
3544;BME280;1786;52.870;9.578;2024-02-26T09:57:05;99704.00;;;13.49;54.34
3544;BME280;1786;52.870;9.578;2024-02-26T09:59:41;99709.56;;;13.46;54.05
3544;BME280;1786;52.870;9.578;2024-02-26T10:02:12;99708.00;;;13.03;54.93
3544;BME280;1786;52.870;9.578;2024-02-26T10:04:40;99711.66;;;13.02;55.34
3544;BME280;1786;52.870;9.578;2024-02-26T10:07:11;99710.25;;;13.28;54.31
3544;BME280;1786;52.870;9.578;2024-02-26T10:09:39;99706.59;;;13.29;54.53
3544;BME280;1786;52.870;9.578;2024-02-26T10:12:08;99718.09;;;13.49;54.05
3544;BME280;1786;52.870;9.578;2024-02-26T10:14:36;99706.75;;;13.37;54.38
3544;BME280;1786;52.870;9.578;2024-02-26T10:17:06;99719.16;;;13.27;53.88
3544;BME280;1786;52.870;9.578;2024-02-26T10:19:33;99722.50;;;13.29;53.58
3544;BME280;1786;52.870;9.578;2024-02-26T10:22:04;99713.22;;;13.54;53.30
3544;BME280;1786;52.870;9.578;2024-02-26T10:24:31;99713.06;;;13.75;53.39
3544;BME280;1786;52.870;9.578;2024-02-26T10:26:57;99715.31;;;13.90;52.91
3544;BME280;1786;52.870;9.578;2024-02-26T10:29:25;99721.56;;;14.37;52.60
3544;BME280;1786;52.870;9.578;2024-02-26T10:31:52;99724.66;;;14.23;51.73
3544;BME280;1786;52.870;9.578;2024-02-26T10:34:19;99723.53;;;14.06;51.57
3544;BME280;1786;52.870;9.578;2024-02-26T10:36:46;99727.44;;;14.31;52.12
3544;BME280;1786;52.870;9.578;2024-02-26T10:39:19;99734.28;;;14.43;52.14
3544;BME280;1786;52.870;9.578;2024-02-26T10:41:47;99732.19;;;14.47;50.87
3544;BME280;1786;52.870;9.578;2024-02-26T10:44:13;99729.81;;;14.91;50.93
3544;BME280;1786;52.870;9.578;2024-02-26T10:46:46;99738.03;;;14.50;51.42
3544;BME280;1786;52.870;9.578;2024-02-26T10:49:14;99724.94;;;14.29;51.10
3544;BME280;1786;52.870;9.578;2024-02-26T10:51:52;99740.13;;;14.66;51.31
3544;BME280;1786;52.870;9.578;2024-02-26T10:54:21;99735.44;;;14.02;51.34
3544;BME280;1786;52.870;9.578;2024-02-26T10:56:50;99737.81;;;13.66;52.57
3544;BME280;1786;52.870;9.578;2024-02-26T10:59:18;99735.56;;;14.29;51.73
3544;BME280;1786;52.870;9.578;2024-02-26T11:01:48;99739.72;;;14.61;51.79
3544;BME280;1786;52.870;9.578;2024-02-26T11:04:16;99736.56;;;14.09;51.74
3544;BME280;1786;52.870;9.578;2024-02-26T11:06:44;99746.47;;;13.88;52.24
3544;BME280;1786;52.870;9.578;2024-02-26T11:09:13;99746.72;;;14.72;51.01
3544;BME280;1786;52.870;9.578;2024-02-26T11:11:41;99743.97;;;14.54;51.92
3544;BME280;1786;52.870;9.578;2024-02-26T11:14:08;99741.75;;;14.87;51.22
3544;BME280;1786;52.870;9.578;2024-02-26T11:16:37;99740.41;;;14.63;52.09
3544;BME280;1786;52.870;9.578;2024-02-26T11:19:06;99733.84;;;15.32;51.54
3544;BME280;1786;52.870;9.578;2024-02-26T11:21:35;99734.59;;;15.25;50.54
3544;BME280;1786;52.870;9.578;2024-02-26T11:24:08;99740.50;;;15.19;49.97
3544;BME280;1786;52.870;9.578;2024-02-26T11:26:42;99744.47;;;14.67;50.49
3544;BME280;1786;52.870;9.578;2024-02-26T11:29:13;99735.59;;;15.14;49.93
3544;BME280;1786;52.870;9.578;2024-02-26T11:31:42;99738.91;;;14.98;50.41
3544;BME280;1786;52.870;9.578;2024-02-26T11:34:09;99741.63;;;14.79;50.63
3544;BME280;1786;52.870;9.578;2024-02-26T11:36:37;99738.53;;;14.26;51.45
3544;BME280;1786;52.870;9.578;2024-02-26T11:39:04;99732.09;;;14.86;50.78
3544;BME280;1786;52.870;9.578;2024-02-26T11:41:31;99732.06;;;15.23;49.46
3544;BME280;1786;52.870;9.578;2024-02-26T11:44:01;99732.50;;;15.19;49.15
3544;BME280;1786;52.870;9.578;2024-02-26T11:46:34;99735.88;;;14.83;49.58
3544;BME280;1786;52.870;9.578;2024-02-26T11:51:51;99743.75;;;15.12;49.44
3544;BME280;1786;52.870;9.578;2024-02-26T11:54:50;99735.38;;;15.35;48.70
3544;BME280;1786;52.870;9.578;2024-02-26T11:57:22;99744.84;;;15.20;49.79
3544;BME280;1786;52.870;9.578;2024-02-26T11:59:49;99753.25;;;15.43;49.50
3544;BME280;1786;52.870;9.578;2024-02-26T12:05:12;99744.81;;;15.75;48.80
3544;BME280;1786;52.870;9.578;2024-02-26T12:07:40;99741.66;;;15.34;49.30
3544;BME280;1786;52.870;9.578;2024-02-26T12:10:26;99744.50;;;15.32;49.84
3544;BME280;1786;52.870;9.578;2024-02-26T12:13:15;99739.44;;;15.29;49.96
3544;BME280;1786;52.870;9.578;2024-02-26T12:18:18;99743.81;;;15.94;48.58
3544;BME280;1786;52.870;9.578;2024-02-26T12:20:46;99745.66;;;16.11;48.50
3544;BME280;1786;52.870;9.578;2024-02-26T12:23:16;99741.72;;;16.41;47.03
3544;BME280;1786;52.870;9.578;2024-02-26T12:25:46;99750.31;;;16.53;48.05
3544;BME280;1786;52.870;9.578;2024-02-26T12:28:15;99761.63;;;16.73;48.16
3544;BME280;1786;52.870;9.578;2024-02-26T12:30:41;99761.63;;;16.29;47.58
3544;BME280;1786;52.870;9.578;2024-02-26T12:33:08;99770.69;;;16.36;47.21
3544;BME280;1786;52.870;9.578;2024-02-26T12:35:35;99773.94;;;16.48;46.23
3544;BME280;1786;52.870;9.578;2024-02-26T12:38:03;99764.50;;;16.00;47.04
3544;BME280;1786;52.870;9.578;2024-02-26T12:40:31;99774.56;;;16.24;45.72
3544;BME280;1786;52.870;9.578;2024-02-26T12:42:58;99774.13;;;16.29;45.30
3544;BME280;1786;52.870;9.578;2024-02-26T12:45:25;99775.94;;;16.28;47.36
3544;BME280;1786;52.870;9.578;2024-02-26T12:47:52;99777.94;;;15.63;48.27
3544;BME280;1786;52.870;9.578;2024-02-26T12:50:19;99778.59;;;15.92;48.14
3544;BME280;1786;52.870;9.578;2024-02-26T12:52:47;99774.81;;;15.67;46.26
3544;BME280;1786;52.870;9.578;2024-02-26T12:55:15;99788.03;;;15.59;46.30
3544;BME280;1786;52.870;9.578;2024-02-26T12:57:44;99789.25;;;15.65;46.39
3544;BME280;1786;52.870;9.578;2024-02-26T13:00:15;99796.03;;;15.59;46.78
3544;BME280;1786;52.870;9.578;2024-02-26T13:02:44;99794.06;;;15.89;45.88
3544;BME280;1786;52.870;9.578;2024-02-26T13:05:13;99796.66;;;15.98;46.04
3544;BME280;1786;52.870;9.578;2024-02-26T13:07:44;99795.28;;;15.94;46.28
3544;BME280;1786;52.870;9.578;2024-02-26T13:10:13;99795.59;;;16.09;45.45
3544;BME280;1786;52.870;9.578;2024-02-26T13:15:15;99798.13;;;15.65;45.85
3544;BME280;1786;52.870;9.578;2024-02-26T13:17:41;99797.91;;;15.21;46.67
3544;BME280;1786;52.870;9.578;2024-02-26T13:20:09;99800.50;;;15.03;47.21
3544;BME280;1786;52.870;9.578;2024-02-26T13:22:39;99801.50;;;15.02;47.42
3544;BME280;1786;52.870;9.578;2024-02-26T13:25:06;99804.38;;;14.42;48.89
3544;BME280;1786;52.870;9.578;2024-02-26T13:27:34;99803.75;;;14.97;48.23
3544;BME280;1786;52.870;9.578;2024-02-26T13:30:10;99811.34;;;14.82;48.01
3544;BME280;1786;52.870;9.578;2024-02-26T13:32:39;99807.00;;;14.71;48.33
3544;BME280;1786;52.870;9.578;2024-02-26T13:35:07;99814.72;;;14.84;47.13
3544;BME280;1786;52.870;9.578;2024-02-26T13:37:38;99812.75;;;14.77;48.53
3544;BME280;1786;52.870;9.578;2024-02-26T13:40:09;99811.34;;;14.82;48.49